createdAt,value
2018-07-16T00:03:56.871Z,3.70
2018-07-16T00:08:59.005Z,3.60
2018-07-16T00:14:01.123Z,3.77
2018-07-16T00:19:03.287Z,3.97
2018-07-16T00:24:05.432Z,3.27
2018-07-16T00:29:07.577Z,3.23
2018-07-16T00:34:09.815Z,3.87
2018-07-16T00:39:12.332Z,3.47
2018-07-16T00:44:14.565Z,3.60
2018-07-16T00:49:16.978Z,3.60
2018-07-16T00:54:19.148Z,3.33
2018-07-16T00:59:21.293Z,3.83
2018-07-16T01:04:23.496Z,3.63
2018-07-16T01:09:25.667Z,3.50
2018-07-16T01:14:27.836Z,3.50
2018-07-16T01:19:30.003Z,3.30
2018-07-16T01:24:32.162Z,3.20
2018-07-16T01:29:34.327Z,3.20
2018-07-16T01:34:36.476Z,3.53
2018-07-16T01:39:38.670Z,3.60
2018-07-16T01:44:40.848Z,3.00
2018-07-16T01:49:43.005Z,3.10
2018-07-16T01:54:45.166Z,4.30
2018-07-16T01:59:47.336Z,3.37
2018-07-16T02:04:49.486Z,3.60
2018-07-16T02:09:51.659Z,3.77
2018-07-16T02:14:53.803Z,3.00
2018-07-16T02:19:56.146Z,3.77
2018-07-16T02:24:58.298Z,3.80
2018-07-16T02:30:00.639Z,3.30
2018-07-16T02:35:02.835Z,3.37
2018-07-16T02:40:05.044Z,3.37
2018-07-16T02:45:07.243Z,3.47
2018-07-16T02:50:09.424Z,3.93
2018-07-16T02:55:11.597Z,3.90
2018-07-16T03:00:13.783Z,3.00
2018-07-16T03:05:17.216Z,3.60
2018-07-16T03:10:19.433Z,3.70
2018-07-16T03:15:21.601Z,3.40
2018-07-16T03:20:23.738Z,3.40
2018-07-16T03:25:25.903Z,3.73
2018-07-16T03:30:28.036Z,3.40
2018-07-16T03:35:30.230Z,3.70
2018-07-16T03:40:32.445Z,3.70
2018-07-16T03:45:34.580Z,4.40
2018-07-16T03:50:36.746Z,4.00
2018-07-16T03:55:38.895Z,4.03
2018-07-16T04:00:41.051Z,4.20
2018-07-16T04:05:43.225Z,3.63
2018-07-16T04:10:45.407Z,4.10
2018-07-16T04:15:47.580Z,3.20
2018-07-16T04:20:50.013Z,3.10
2018-07-16T04:25:52.161Z,3.23
2018-07-16T04:30:54.304Z,3.37
2018-07-16T04:35:56.469Z,3.13
2018-07-16T04:40:58.664Z,3.63
2018-07-16T04:46:00.799Z,3.50
2018-07-16T04:51:02.955Z,3.07
2018-07-16T04:56:05.288Z,3.70
2018-07-16T05:01:08.076Z,4.07
2018-07-16T05:06:10.209Z,3.90
2018-07-16T05:11:12.394Z,4.07
2018-07-16T05:16:14.553Z,4.77
2018-07-16T05:21:16.707Z,4.03
2018-07-16T05:26:18.911Z,5.67
2018-07-16T05:31:21.063Z,4.90
2018-07-16T05:36:23.424Z,4.47
2018-07-16T05:41:25.643Z,4.70
2018-07-16T05:46:27.814Z,5.20
2018-07-16T05:51:30.018Z,4.83
2018-07-16T05:56:32.266Z,5.60
2018-07-16T06:01:34.433Z,5.63
2018-07-16T06:06:36.609Z,4.63
2018-07-16T06:11:38.819Z,5.00
2018-07-16T06:16:41.036Z,6.10
2018-07-16T06:21:43.153Z,5.90
2018-07-16T06:26:45.281Z,5.50
2018-07-16T06:31:47.496Z,5.83
2018-07-16T06:36:49.680Z,5.33
2018-07-16T06:41:51.886Z,4.90
2018-07-16T06:46:54.070Z,5.60
2018-07-16T06:51:56.261Z,4.80
2018-07-16T06:56:58.429Z,5.37
2018-07-16T07:02:00.606Z,5.23
2018-07-16T07:07:02.761Z,4.77
2018-07-16T07:12:04.926Z,5.70
2018-07-16T07:17:07.088Z,6.27
2018-07-16T07:22:09.271Z,6.27
2018-07-16T07:27:11.495Z,6.33
2018-07-16T07:32:13.641Z,5.60
2018-07-16T07:37:15.839Z,5.50
2018-07-16T07:42:18.094Z,5.80
2018-07-16T07:47:20.257Z,5.33
2018-07-16T07:52:22.488Z,4.57
2018-07-16T07:57:25.580Z,4.37
2018-07-16T08:02:27.736Z,4.83
2018-07-16T08:07:29.881Z,5.00
2018-07-16T08:12:32.038Z,4.70
2018-07-16T08:17:34.224Z,4.17
2018-07-16T08:22:36.416Z,4.47
2018-07-16T08:27:38.633Z,4.57
2018-07-16T08:32:40.814Z,4.67
2018-07-16T08:37:42.975Z,4.90
2018-07-16T08:42:45.197Z,5.07
2018-07-16T08:47:47.362Z,4.40
2018-07-16T08:52:49.647Z,4.90
2018-07-16T08:57:52.262Z,4.90
2018-07-16T09:02:54.412Z,5.10
2018-07-16T09:07:56.589Z,4.90
2018-07-16T09:12:58.728Z,4.97
2018-07-16T09:18:00.867Z,5.60
2018-07-16T09:23:03.045Z,4.77
2018-07-16T09:28:05.187Z,5.20
2018-07-16T09:33:07.361Z,5.17
2018-07-16T09:38:09.604Z,4.77
2018-07-16T09:48:21.009Z,4.80
2018-07-16T09:53:23.183Z,4.40
2018-07-16T09:58:25.304Z,5.23
2018-07-16T10:03:27.431Z,4.87
2018-07-16T10:08:29.599Z,4.90
2018-07-16T10:13:31.747Z,4.60
2018-07-16T10:18:33.872Z,4.60
2018-07-16T10:23:36.003Z,4.80
2018-07-16T10:28:38.129Z,4.40
2018-07-16T10:33:40.317Z,4.40
2018-07-16T10:38:42.461Z,4.33
2018-07-16T10:43:44.849Z,4.07
2018-07-16T10:48:47.212Z,5.00
2018-07-16T10:53:49.423Z,4.30
2018-07-16T10:58:51.806Z,3.83
2018-07-16T11:03:54.000Z,3.50
2018-07-16T11:08:56.199Z,3.93
2018-07-16T11:13:58.339Z,4.03
2018-07-16T11:19:00.475Z,3.53
2018-07-16T11:24:02.627Z,3.60
2018-07-16T11:29:04.951Z,3.70
2018-07-16T11:34:07.104Z,4.47
2018-07-16T11:39:09.279Z,3.80
2018-07-16T11:44:11.488Z,3.93
2018-07-16T11:49:13.650Z,2.87
2018-07-16T11:54:15.823Z,2.70
2018-07-16T11:59:18.034Z,3.17
2018-07-16T12:04:20.129Z,3.43
2018-07-16T12:09:22.311Z,4.20
2018-07-16T12:14:24.463Z,4.43
2018-07-16T12:19:26.606Z,4.93
2018-07-16T12:24:29.071Z,5.10
2018-07-16T12:29:31.173Z,4.70
2018-07-16T12:34:33.369Z,4.47
2018-07-16T12:39:36.687Z,4.60
2018-07-16T12:44:40.270Z,4.90
2018-07-16T12:49:50.752Z,4.53
2018-07-16T12:54:54.275Z,4.53
2018-07-16T12:59:58.087Z,4.00
2018-07-16T13:05:08.429Z,4.83
2018-07-16T13:10:11.776Z,4.07
2018-07-16T13:15:14.027Z,4.73
2018-07-16T13:20:16.186Z,4.20
2018-07-16T13:25:18.362Z,4.10
2018-07-16T13:30:20.515Z,4.00
2018-07-16T13:35:22.752Z,4.00
2018-07-16T13:40:24.914Z,3.10
2018-07-16T13:45:27.087Z,4.53
2018-07-16T13:50:29.293Z,4.00
2018-07-16T13:55:31.448Z,3.93
2018-07-16T14:00:33.622Z,3.67
2018-07-16T14:05:35.766Z,3.63
2018-07-16T14:10:38.084Z,3.57
2018-07-16T14:15:40.249Z,3.47
2018-07-16T14:20:42.391Z,3.77
2018-07-16T14:25:44.552Z,3.10
2018-07-16T14:30:46.709Z,4.07
2018-07-16T14:35:48.871Z,2.87
2018-07-16T14:40:51.084Z,3.40
2018-07-16T14:45:53.294Z,3.43
2018-07-16T14:50:55.481Z,3.27
2018-07-16T14:55:57.663Z,3.67
2018-07-16T15:00:59.799Z,3.70
2018-07-16T15:06:01.936Z,3.80
2018-07-16T15:11:04.089Z,3.63
2018-07-16T15:16:06.251Z,3.90
2018-07-16T15:21:08.664Z,3.67
2018-07-16T15:26:10.622Z,3.03
2018-07-16T15:31:12.804Z,3.13
2018-07-16T15:36:14.916Z,3.33
2018-07-16T15:41:17.138Z,3.17
2018-07-16T15:46:19.379Z,3.50
2018-07-16T15:51:21.513Z,3.30
2018-07-16T15:56:23.700Z,3.63
2018-07-16T16:01:25.828Z,3.80
2018-07-16T16:06:28.035Z,3.47
2018-07-16T16:11:30.204Z,2.97
2018-07-16T16:16:32.391Z,3.20
2018-07-16T16:21:34.544Z,3.53
2018-07-16T16:26:36.752Z,4.30
2018-07-16T16:31:38.945Z,3.43
2018-07-16T16:36:41.186Z,3.20
2018-07-16T16:41:43.318Z,3.73
2018-07-16T16:46:45.545Z,3.50
2018-07-16T16:51:47.769Z,3.00
2018-07-16T16:56:49.976Z,3.77
2018-07-16T17:01:52.138Z,4.17
2018-07-16T17:06:54.324Z,3.50
2018-07-16T17:11:56.654Z,3.10
2018-07-16T17:16:58.757Z,3.27
2018-07-16T17:22:00.934Z,3.20
2018-07-16T17:27:03.314Z,3.10
2018-07-16T17:32:05.509Z,3.60
2018-07-16T17:37:07.738Z,3.57
2018-07-16T17:42:09.930Z,3.77
2018-07-16T17:47:12.167Z,3.53
2018-07-16T17:52:14.374Z,4.17
2018-07-16T17:57:16.568Z,3.47
2018-07-16T18:02:18.780Z,3.67
2018-07-16T18:07:21.735Z,3.70
2018-07-16T18:12:23.988Z,3.50
2018-07-16T18:17:26.235Z,4.40
2018-07-16T18:22:28.488Z,4.40
2018-07-16T18:27:30.691Z,4.07
2018-07-16T18:32:32.931Z,3.73
2018-07-16T18:37:35.146Z,3.80
2018-07-16T18:42:37.383Z,4.10
2018-07-16T18:47:39.659Z,4.17
2018-07-16T18:52:41.902Z,4.27
2018-07-16T18:57:44.166Z,4.23
2018-07-16T19:02:46.413Z,4.43
2018-07-16T19:07:48.612Z,4.23
2018-07-16T19:12:50.793Z,3.83
2018-07-16T19:17:53.981Z,4.27
2018-07-16T19:22:56.248Z,4.40
2018-07-16T19:27:58.476Z,4.07
2018-07-16T19:33:00.748Z,4.20
2018-07-16T19:38:03.082Z,3.63
2018-07-16T19:43:05.333Z,4.60
2018-07-16T19:48:07.660Z,4.47
2018-07-16T19:53:09.916Z,5.20
2018-07-16T19:58:12.209Z,4.57
2018-07-16T20:03:14.366Z,4.70
2018-07-16T20:08:16.607Z,4.53
2018-07-16T20:13:18.930Z,5.07
2018-07-16T20:18:21.127Z,4.73
2018-07-16T20:23:23.363Z,5.73
2018-07-16T20:28:25.859Z,5.17
2018-07-16T20:33:28.096Z,5.33
2018-07-16T20:38:30.292Z,5.53
2018-07-16T20:43:32.522Z,4.63
2018-07-16T20:48:34.766Z,4.90
2018-07-16T20:53:37.015Z,5.10
2018-07-16T20:58:39.321Z,5.80
2018-07-16T21:03:41.518Z,5.23
2018-07-16T21:08:43.728Z,6.20
2018-07-16T21:13:45.909Z,5.80
2018-07-16T21:18:48.097Z,5.50
2018-07-16T21:23:50.262Z,5.63
2018-07-16T21:28:52.593Z,6.10
2018-07-16T21:33:54.802Z,6.50
2018-07-16T21:38:57.003Z,6.77
2018-07-16T21:43:59.200Z,6.13
2018-07-16T21:49:01.478Z,5.67
2018-07-16T21:54:03.912Z,6.80
2018-07-16T21:59:06.146Z,6.30
2018-07-16T22:04:08.564Z,6.27
2018-07-16T22:09:10.760Z,6.10
2018-07-16T22:14:12.968Z,6.80
2018-07-16T22:19:15.169Z,6.40
2018-07-16T22:24:17.341Z,7.03
2018-07-16T22:29:19.583Z,7.40
2018-07-16T22:34:21.943Z,6.67
2018-07-16T22:39:24.132Z,8.57
2018-07-16T22:44:26.292Z,7.07
2018-07-16T22:49:28.504Z,7.60
2018-07-16T22:54:30.650Z,8.23
2018-07-16T22:59:32.858Z,9.03
2018-07-16T23:04:35.025Z,8.37
2018-07-16T23:09:37.495Z,8.73
2018-07-16T23:14:39.667Z,7.60
2018-07-16T23:19:41.860Z,8.23
2018-07-16T23:24:44.445Z,8.57
2018-07-16T23:29:46.623Z,9.00
2018-07-16T23:34:48.766Z,8.30
2018-07-16T23:39:50.919Z,8.50
2018-07-16T23:44:53.091Z,8.27
2018-07-16T23:49:55.260Z,8.07
2018-07-16T23:54:57.552Z,8.00
2018-07-16T23:59:59.932Z,7.90
